createdAt,value
2019-01-20T08:55:22.956Z,7.33
2019-01-20T09:01:17.969Z,5.01
2019-01-20T09:07:12.957Z,5.24
2019-01-20T09:13:07.959Z,5.28
2019-01-20T09:19:02.961Z,5.02
2019-01-20T09:24:57.970Z,5.24
2019-01-20T09:30:53.026Z,4.86
2019-01-20T09:36:48.024Z,5.52
2019-01-20T09:42:42.964Z,4.62
2019-01-20T09:48:37.986Z,6.15
2019-01-20T09:54:32.995Z,5.67
2019-01-20T10:00:27.959Z,5.58
2019-01-20T10:06:22.987Z,5.53
2019-01-20T10:12:17.971Z,5.67
2019-01-20T10:18:13.005Z,5.59
2019-01-20T10:24:07.985Z,5.51
2019-01-20T10:30:03.057Z,5.82
2019-01-20T10:35:57.986Z,4.09
2019-01-20T10:41:53.502Z,4.91
2019-01-20T10:47:48.008Z,5.13
2019-01-20T10:53:43.034Z,4.71
2019-01-20T10:59:38.021Z,3.65
2019-01-20T11:05:33.030Z,3.82
2019-01-20T11:11:28.019Z,3.6
2019-01-20T11:17:23.032Z,3.72
2019-01-20T11:23:18.031Z,3.16
2019-01-20T11:29:13.055Z,3.58
2019-01-20T11:35:08.018Z,3.75
2019-01-20T11:41:03.056Z,3.64
2019-01-20T11:46:58.077Z,4.33
2019-01-20T11:52:53.035Z,3.82
2019-01-20T11:58:48.058Z,4.08
2019-01-20T12:04:43.030Z,5.21
2019-01-20T12:10:38.047Z,5.01
2019-01-20T12:16:33.059Z,4.3
2019-01-20T12:22:28.053Z,3.39
2019-01-20T12:28:23.043Z,4.79
2019-01-20T12:34:18.077Z,3.78
2019-01-20T12:40:13.075Z,3.96
2019-01-20T12:46:08.084Z,3.77
2019-01-20T12:52:03.092Z,3.44
2019-01-20T12:57:58.084Z,2.81
2019-01-20T13:03:53.070Z,2.3
2019-01-20T13:09:48.076Z,2.33
2019-01-20T13:15:43.082Z,2.79
2019-01-20T13:21:38.089Z,2.13
2019-01-20T13:27:33.096Z,2.64
2019-01-20T13:33:28.117Z,2.76
2019-01-20T13:39:23.106Z,3.4
2019-01-20T13:45:18.119Z,3.3
2019-01-20T13:51:13.137Z,2.65
2019-01-20T13:57:08.146Z,2.44
2019-01-20T14:03:03.226Z,2.64
2019-01-20T14:08:58.119Z,2.81
2019-01-20T14:14:53.935Z,3.07
2019-01-20T14:20:48.121Z,2.83
2019-01-20T14:26:43.189Z,2.39
2019-01-20T14:32:38.134Z,2.2
2019-01-20T14:38:33.121Z,4.11
2019-01-20T14:44:28.140Z,2.37
2019-01-20T14:50:23.143Z,3.57
2019-01-20T14:56:18.154Z,2.51
2019-01-20T15:02:13.168Z,2.59
2019-01-20T15:08:08.183Z,15.51
2019-01-20T15:14:03.236Z,2.36
2019-01-20T15:19:58.162Z,2.57
2019-01-20T15:25:53.210Z,3.32
2019-01-20T15:31:48.170Z,4.48
2019-01-20T15:37:43.237Z,3.6
2019-01-20T15:43:38.174Z,3.96
2019-01-20T15:49:33.159Z,4.47
2019-01-20T15:55:28.199Z,5.87
2019-01-20T16:01:23.180Z,8.94
2019-01-20T16:07:18.213Z,6.8
2019-01-20T16:13:13.238Z,5.66
2019-01-20T16:19:08.195Z,6.56
2019-01-20T16:25:03.294Z,5.79
2019-01-20T16:30:58.227Z,7.13
2019-01-20T16:36:53.226Z,6.66
2019-01-20T16:42:48.239Z,7.3
2019-01-20T16:48:43.205Z,6.99
2019-01-20T16:54:38.253Z,7.2
2019-01-20T17:00:33.251Z,7.29
2019-01-20T17:06:28.230Z,7.61
2019-01-20T17:12:23.242Z,6.58
2019-01-20T17:18:18.213Z,5.31
2019-01-20T17:24:13.263Z,5.45
2019-01-20T17:30:08.251Z,5.21
2019-01-20T17:36:03.274Z,6.47
2019-01-20T17:41:58.243Z,7.09
2019-01-20T17:47:53.248Z,6.64
2019-01-20T17:53:48.287Z,7.25
2019-01-20T17:59:43.265Z,6.38
2019-01-20T18:05:38.318Z,6.3
2019-01-20T18:11:33.258Z,8.02
2019-01-20T18:17:28.249Z,6.19
2019-01-20T18:23:23.272Z,7.98
2019-01-20T18:29:18.254Z,7.04
2019-01-20T18:35:13.273Z,8.73
2019-01-20T18:41:08.305Z,12.78
2019-01-20T18:47:03.328Z,16.51
2019-01-20T18:52:58.294Z,11.1
2019-01-20T18:58:53.312Z,10.97
2019-01-20T19:04:48.274Z,16.31
2019-01-20T19:10:43.290Z,13.03
2019-01-20T19:16:38.376Z,11.69
2019-01-20T19:22:33.295Z,12.69
2019-01-20T19:28:28.293Z,14.29
2019-01-20T19:34:23.316Z,13.63
2019-01-20T19:40:18.351Z,11.7
2019-01-20T19:46:16.263Z,10.62
2019-01-20T19:52:08.315Z,12.24
2019-01-20T19:58:03.330Z,12.3
2019-01-20T20:03:58.315Z,13.19
2019-01-20T20:09:53.314Z,12.41
2019-01-20T20:15:48.361Z,11.26
2019-01-20T20:21:43.344Z,13.45
2019-01-20T20:27:38.349Z,11.11
2019-01-20T20:33:33.351Z,13.62
2019-01-20T20:39:28.365Z,13.27
2019-01-20T20:45:23.411Z,13.56
2019-01-20T20:51:18.356Z,15.04
2019-01-20T20:57:13.354Z,12.47
2019-01-20T21:03:08.347Z,13.93
2019-01-20T21:09:03.378Z,15.76
2019-01-20T21:15:03.174Z,14.73
2019-01-20T21:20:53.355Z,15.86
2019-01-20T21:26:48.368Z,14.16
2019-01-20T21:32:43.403Z,13.47
2019-01-20T21:38:38.372Z,13.42
2019-01-20T21:44:33.370Z,13.07
2019-01-20T21:50:28.392Z,12.07
2019-01-20T21:56:23.378Z,11.86
2019-01-20T22:02:18.423Z,12.05
2019-01-20T22:08:13.399Z,13.07
2019-01-20T22:14:08.383Z,11.32
2019-01-20T22:20:03.427Z,11.92
2019-01-20T22:25:58.414Z,12.16
2019-01-20T22:31:53.428Z,11.8
2019-01-20T22:37:48.444Z,11.73
2019-01-20T22:43:43.511Z,11.12
2019-01-20T22:49:38.424Z,11.36
2019-01-20T22:55:33.421Z,11.76
2019-01-20T23:01:28.418Z,10.88
2019-01-20T23:07:23.424Z,12.04
2019-01-20T23:13:18.466Z,11.59
2019-01-20T23:19:13.434Z,11.4
2019-01-20T23:25:08.497Z,10.46
2019-01-20T23:31:03.426Z,11.18
2019-01-20T23:36:58.450Z,10.64
2019-01-20T23:42:53.463Z,11.28
2019-01-20T23:48:48.467Z,12.33
2019-01-20T23:54:43.494Z,11.52
